Time;durP1;ratioP1;P1;durP2;ratioP2;P2;SDS_P1;SDS_P2;PMS_P1;PMS_P2;Temp;Humidity;BMP_temperature;BMP_pressure;BME280_temperature;BME280_humidity;BME280_pressure;Samples;Min_cycle;Max_cycle;Signal;HPM_P1;HPM_P2
2023/05/03 00:00:35;;;;;;;3.30;1.63;;;8.30;65.00;;;;;;5051166;28;20028;-69
2023/05/03 00:03:03;;;;;;;2.03;1.27;;;8.10;65.40;;;;;;5052433;28;20039;-70
2023/05/03 00:05:28;;;;;;;2.80;1.50;;;8.10;65.40;;;;;;5052841;28;20517;-69
2023/05/03 00:07:55;;;;;;;2.30;1.50;;;8.10;65.30;;;;;;5052068;28;20033;-68
2023/05/03 00:10:21;;;;;;;3.53;1.45;;;8.10;65.20;;;;;;5052396;28;20022;-69
2023/05/03 00:12:47;;;;;;;3.42;1.60;;;8.10;65.30;;;;;;5052246;28;20027;-69
2023/05/03 00:15:12;;;;;;;3.90;1.40;;;8.10;65.20;;;;;;5052417;28;20021;-68
2023/05/03 00:17:38;;;;;;;1.92;1.40;;;8.10;65.10;;;;;;5052371;28;20028;-69
2023/05/03 00:20:04;;;;;;;3.97;1.77;;;8.10;65.10;;;;;;5051180;28;20021;-70
2023/05/03 00:22:31;;;;;;;3.03;1.80;;;8.10;65.10;;;;;;5052078;28;20029;-70
2023/05/03 00:24:58;;;;;;;2.83;1.60;;;8.10;65.30;;;;;;5052116;28;20021;-70
2023/05/03 00:27:23;;;;;;;4.40;1.67;;;8.00;65.40;;;;;;5052403;28;20025;-70
2023/05/03 00:29:53;;;;;;;4.85;1.70;;;8.00;65.40;;;;;;5052614;28;20530;-69
2023/05/03 00:32:21;;;;;;;2.90;1.70;;;8.00;65.40;;;;;;5052379;28;20080;-70
2023/05/03 00:34:55;;;;;;;2.33;1.65;;;7.90;65.40;;;;;;5051949;28;20025;-67
2023/05/03 00:37:21;;;;;;;3.42;1.80;;;7.90;65.40;;;;;;5051755;28;20394;-70
2023/05/03 00:39:46;;;;;;;3.35;1.90;;;8.00;65.50;;;;;;5033984;28;20025;-70
2023/05/03 00:42:12;;;;;;;3.78;2.03;;;8.00;65.50;;;;;;5051893;28;20114;-69
2023/05/03 00:44:37;;;;;;;5.05;1.70;;;7.90;65.50;;;;;;5051964;28;20032;-69
2023/05/03 00:47:03;;;;;;;5.20;2.10;;;7.90;65.60;;;;;;5051521;28;20021;-69
2023/05/03 00:49:29;;;;;;;5.10;2.10;;;7.80;66.10;;;;;;5051580;28;20479;-69
2023/05/03 00:51:56;;;;;;;2.88;1.98;;;7.80;66.30;;;;;;5051580;28;20026;-69
2023/05/03 00:54:22;;;;;;;4.35;2.20;;;7.70;66.40;;;;;;5051482;28;20017;-68
2023/05/03 00:56:48;;;;;;;5.03;1.92;;;7.70;66.50;;;;;;5033572;28;20025;-69
2023/05/03 00:59:13;;;;;;;2.53;1.90;;;7.70;66.70;;;;;;5050601;28;20115;-69
2023/05/03 01:01:39;;;;;;;2.83;1.73;;;7.70;66.80;;;;;;5051142;28;20021;-70
2023/05/03 01:04:06;;;;;;;4.03;1.80;;;7.60;66.70;;;;;;5051287;28;20036;-70
2023/05/03 01:06:38;;;;;;;3.03;1.80;;;7.70;66.80;;;;;;5051010;28;20049;-69
2023/05/03 01:09:26;;;;;;;3.05;1.83;;;7.60;66.80;;;;;;5051195;28;20029;-70
2023/05/03 01:12:13;;;;;;;3.75;1.95;;;7.60;66.90;;;;;;5051276;28;20029;-69
2023/05/03 01:15:15;;;;;;;2.35;1.88;;;7.60;66.90;;;;;;5051039;28;20025;-69
2023/05/03 01:17:49;;;;;;;3.08;1.73;;;7.60;66.80;;;;;;5051046;28;20020;-69
2023/05/03 01:20:20;;;;;;;4.68;2.00;;;7.60;67.10;;;;;;5051418;28;20209;-70
2023/05/03 01:22:55;;;;;;;4.35;2.13;;;7.50;67.10;;;;;;5050890;28;20032;-69
2023/05/03 01:25:20;;;;;;;4.07;1.98;;;7.50;67.30;;;;;;5050775;28;20032;-69
2023/05/03 01:27:46;;;;;;;4.07;1.88;;;7.50;67.30;;;;;;5050754;28;20247;-69
2023/05/03 01:30:12;;;;;;;4.80;2.20;;;7.50;67.30;;;;;;5050920;28;20025;-68
2023/05/03 01:32:47;;;;;;;3.70;2.20;;;7.50;67.20;;;;;;5050634;28;20416;-69
2023/05/03 01:35:27;;;;;;;4.47;2.25;;;7.50;67.40;;;;;;5050813;28;20021;-69
2023/05/03 01:37:56;;;;;;;2.45;1.88;;;7.50;67.50;;;;;;5050525;28;20029;-68
2023/05/03 01:40:22;;;;;;;2.55;1.80;;;7.40;67.40;;;;;;5050895;28;20017;-69
2023/05/03 01:42:49;;;;;;;3.40;2.05;;;7.40;67.40;;;;;;5032650;28;20078;-70
2023/05/03 01:45:15;;;;;;;3.58;1.90;;;7.40;67.60;;;;;;5050597;28;20017;-69
2023/05/03 01:47:40;;;;;;;3.40;2.20;;;7.30;67.80;;;;;;5032381;28;20036;-69
2023/05/03 01:50:06;;;;;;;5.43;2.08;;;7.30;67.90;;;;;;5050959;28;20017;-69
2023/05/03 01:52:32;;;;;;;2.30;1.95;;;7.30;67.90;;;;;;5050329;28;20075;-69
2023/05/03 01:54:58;;;;;;;3.53;1.73;;;7.30;67.90;;;;;;5050569;28;20061;-70
2023/05/03 01:57:24;;;;;;;6.53;2.30;;;7.30;67.90;;;;;;5050463;28;20021;-69
2023/05/03 01:59:50;;;;;;;3.53;2.17;;;7.20;68.40;;;;;;5032358;28;20031;-69
2023/05/03 02:02:15;;;;;;;3.28;2.08;;;7.20;68.90;;;;;;5050351;28;20091;-69
2023/05/03 02:04:41;;;;;;;6.05;2.10;;;7.20;68.80;;;;;;5050200;28;20475;-69
2023/05/03 02:07:07;;;;;;;8.07;3.60;;;7.10;68.90;;;;;;5050345;28;20088;-69
2023/05/03 02:09:32;;;;;;;5.60;2.60;;;7.10;68.90;;;;;;5050289;28;20436;-69
2023/05/03 02:11:58;;;;;;;6.05;2.40;;;7.10;69.00;;;;;;5050241;28;20063;-68
2023/05/03 02:14:23;;;;;;;2.88;1.80;;;7.10;69.00;;;;;;5032223;28;20539;-68
2023/05/03 02:16:49;;;;;;;3.85;2.30;;;7.10;68.90;;;;;;5050030;28;20028;-69
2023/05/03 02:19:14;;;;;;;2.72;1.63;;;7.10;68.80;;;;;;5049954;28;20103;-70
2023/05/03 02:21:40;;;;;;;4.20;2.10;;;7.10;68.60;;;;;;5032250;28;20029;-69
2023/05/03 02:24:06;;;;;;;5.38;1.90;;;7.10;68.60;;;;;;5049936;28;20284;-70
2023/05/03 02:26:31;;;;;;;4.53;2.15;;;7.10;68.60;;;;;;5050013;28;20052;-69
2023/05/03 02:28:57;;;;;;;3.08;1.67;;;7.10;68.60;;;;;;5032063;28;20501;-67
2023/05/03 02:31:23;;;;;;;2.13;1.70;;;7.10;68.70;;;;;;5050125;28;20037;-67
2023/05/03 02:33:49;;;;;;;3.92;2.10;;;7.10;68.60;;;;;;5050282;28;20018;-68
2023/05/03 02:36:15;;;;;;;2.58;1.63;;;7.10;68.70;;;;;;5050141;28;20086;-66
2023/05/03 02:38:40;;;;;;;3.97;2.00;;;7.10;68.70;;;;;;5050003;28;20507;-68
2023/05/03 02:41:06;;;;;;;3.20;1.88;;;7.10;68.70;;;;;;5050010;28;20033;-68
2023/05/03 02:43:32;;;;;;;3.60;2.00;;;7.10;68.70;;;;;;5050042;28;20028;-69
2023/05/03 02:45:57;;;;;;;4.20;2.03;;;7.10;68.70;;;;;;5049829;28;20040;-70
2023/05/03 02:48:23;;;;;;;4.43;1.90;;;7.10;68.90;;;;;;5032011;28;20021;-68
2023/05/03 02:50:49;;;;;;;3.42;2.08;;;7.10;68.80;;;;;;5049450;28;20024;-69
2023/05/03 02:53:14;;;;;;;3.05;2.10;;;7.00;68.80;;;;;;5049496;28;20017;-70
2023/05/03 02:55:40;;;;;;;5.00;2.42;;;7.00;68.80;;;;;;5050201;28;20048;-69
2023/05/03 02:58:06;;;;;;;3.20;1.90;;;7.00;68.70;;;;;;5049865;28;20021;-68
2023/05/03 03:00:32;;;;;;;3.88;2.00;;;7.00;68.70;;;;;;5031722;28;20023;-68
2023/05/03 03:02:58;;;;;;;3.38;1.83;;;7.10;68.80;;;;;;5049716;28;20029;-69
2023/05/03 03:05:23;;;;;;;4.32;1.92;;;7.00;68.70;;;;;;5049844;28;20112;-69
2023/05/03 03:07:50;;;;;;;2.83;1.70;;;7.00;68.70;;;;;;5049627;28;20539;-69
2023/05/03 03:10:15;;;;;;;4.03;1.90;;;7.00;68.80;;;;;;5049825;28;20021;-68
2023/05/03 03:12:41;;;;;;;5.97;1.85;;;7.00;68.70;;;;;;5049501;28;20385;-69
2023/05/03 03:15:07;;;;;;;4.03;1.90;;;7.00;68.70;;;;;;5049592;28;20509;-69
2023/05/03 03:17:33;;;;;;;2.65;1.80;;;6.90;68.70;;;;;;5049511;28;20025;-69
2023/05/03 03:20:00;;;;;;;3.25;1.98;;;6.90;68.90;;;;;;5049584;28;20483;-69
2023/05/03 03:22:26;;;;;;;6.00;2.08;;;6.80;69.10;;;;;;5051358;28;20032;-70
2023/05/03 03:24:52;;;;;;;4.45;2.03;;;6.70;69.70;;;;;;5053178;28;20025;-69
2023/05/03 03:27:17;;;;;;;2.85;1.90;;;6.70;69.90;;;;;;5034985;28;20017;-69
2023/05/03 03:29:43;;;;;;;3.83;2.08;;;6.60;69.90;;;;;;5053041;28;20430;-68
2023/05/03 03:32:08;;;;;;;3.92;1.63;;;6.50;70.10;;;;;;5053331;28;20037;-68
2023/05/03 03:34:34;;;;;;;2.35;1.50;;;6.60;70.20;;;;;;5053078;28;20017;-69
2023/05/03 03:37:00;;;;;;;4.70;1.75;;;6.60;70.00;;;;;;5052907;28;20049;-69
2023/05/03 03:39:26;;;;;;;3.35;2.03;;;6.60;69.80;;;;;;5052929;28;20502;-68
2023/05/03 03:41:51;;;;;;;3.38;1.75;;;6.60;69.70;;;;;;5053046;28;20499;-69
2023/05/03 03:44:17;;;;;;;3.92;1.63;;;6.70;69.60;;;;;;5034943;28;20074;-69
2023/05/03 03:46:42;;;;;;;2.83;1.90;;;6.70;69.40;;;;;;5052650;28;20436;-69
2023/05/03 03:49:08;;;;;;;3.22;2.15;;;6.70;69.30;;;;;;5034727;28;20412;-68
2023/05/03 03:51:33;;;;;;;4.50;1.63;;;6.70;69.30;;;;;;5052724;28;20419;-69
2023/05/03 03:53:59;;;;;;;2.60;1.40;;;6.70;69.10;;;;;;5034822;28;20043;-68
2023/05/03 03:56:25;;;;;;;3.20;1.55;;;6.80;69.10;;;;;;5052714;28;20535;-68
2023/05/03 03:58:50;;;;;;;2.33;1.50;;;6.80;68.90;;;;;;5052289;28;20567;-68
2023/05/03 04:01:16;;;;;;;2.95;1.60;;;6.80;68.80;;;;;;5052519;28;20029;-70
2023/05/03 04:03:45;;;;;;;2.13;1.40;;;6.80;68.70;;;;;;5052317;28;20025;-69
2023/05/03 04:06:10;;;;;;;3.35;1.60;;;6.80;68.70;;;;;;5052670;28;20037;-70
2023/05/03 04:08:36;;;;;;;2.53;1.50;;;6.90;68.60;;;;;;5052485;28;20013;-69
2023/05/03 04:11:02;;;;;;;4.78;1.80;;;6.90;68.60;;;;;;5052374;28;20426;-69
2023/05/03 04:13:27;;;;;;;4.22;1.70;;;6.80;68.70;;;;;;5052538;28;20021;-70
2023/05/03 04:15:55;;;;;;;3.47;1.70;;;6.80;68.70;;;;;;5034259;28;20028;-70
2023/05/03 04:18:21;;;;;;;3.92;1.60;;;6.80;68.70;;;;;;5052151;28;20025;-67
2023/05/03 04:20:47;;;;;;;3.78;1.80;;;6.80;68.80;;;;;;5052135;28;20033;-68
2023/05/03 04:23:13;;;;;;;4.30;1.88;;;6.80;68.80;;;;;;5052183;28;20048;-67
2023/05/03 04:25:45;;;;;;;4.43;1.90;;;6.80;68.80;;;;;;5051845;28;20068;-70
2023/05/03 04:28:12;;;;;;;3.97;1.70;;;6.80;69.00;;;;;;5051879;28;20025;-67
2023/05/03 04:30:38;;;;;;;5.53;1.90;;;6.80;69.00;;;;;;5051861;28;20027;-67
2023/05/03 04:33:03;;;;;;;2.78;1.55;;;6.80;68.80;;;;;;5051206;28;20058;-69
2023/05/03 04:35:29;;;;;;;3.05;1.58;;;6.80;68.80;;;;;;5051617;28;20025;-67
2023/05/03 04:37:54;;;;;;;2.17;1.65;;;6.90;68.80;;;;;;5034131;28;20103;-68
2023/05/03 04:40:20;;;;;;;3.90;1.83;;;6.90;68.70;;;;;;5051945;28;20096;-67
2023/05/03 04:42:45;;;;;;;3.60;1.70;;;7.00;68.50;;;;;;5051896;28;20087;-67
2023/05/03 04:45:13;;;;;;;3.78;1.95;;;7.10;68.50;;;;;;5051604;28;20047;-68
2023/05/03 04:47:39;;;;;;;2.38;1.50;;;7.10;68.30;;;;;;5051443;28;20021;-66
2023/05/03 04:50:06;;;;;;;4.72;1.98;;;7.10;68.30;;;;;;5051831;28;20115;-67
2023/05/03 04:52:32;;;;;;;3.45;1.85;;;7.10;68.30;;;;;;5051616;28;20017;-67
2023/05/03 04:54:57;;;;;;;3.45;2.30;;;7.20;68.40;;;;;;5051937;28;20092;-67
2023/05/03 04:57:23;;;;;;;4.38;2.00;;;7.20;68.40;;;;;;5051310;28;20079;-66
2023/05/03 04:59:49;;;;;;;4.40;1.80;;;7.10;68.40;;;;;;5051541;28;20498;-68
2023/05/03 05:02:14;;;;;;;4.82;1.65;;;7.20;68.40;;;;;;5051415;28;20029;-68
2023/05/03 05:04:40;;;;;;;4.07;2.10;;;7.20;68.30;;;;;;5051598;28;20028;-67
2023/05/03 05:07:06;;;;;;;3.72;2.00;;;7.30;68.30;;;;;;5051524;28;20052;-66
2023/05/03 05:09:32;;;;;;;3.97;1.80;;;7.30;68.40;;;;;;5034049;28;20028;-67
2023/05/03 05:11:57;;;;;;;3.88;2.00;;;7.30;68.30;;;;;;5051334;28;20017;-68
2023/05/03 05:14:26;;;;;;;3.67;2.20;;;7.40;68.30;;;;;;5051336;28;20070;-68
2023/05/03 05:16:51;;;;;;;4.50;2.00;;;7.40;68.30;;;;;;5051204;28;20017;-68
2023/05/03 05:19:17;;;;;;;3.28;2.08;;;7.40;68.30;;;;;;5050957;28;20476;-68
2023/05/03 05:21:43;;;;;;;4.30;1.83;;;7.40;68.40;;;;;;5051467;28;20029;-69
2023/05/03 05:24:08;;;;;;;4.38;2.10;;;8.00;68.80;;;;;;5050875;28;20132;-67
2023/05/03 05:26:34;;;;;;;2.30;1.70;;;9.20;67.00;;;;;;5050863;28;20451;-67
2023/05/03 05:29:00;;;;;;;2.45;1.77;;;10.50;64.10;;;;;;5050747;28;20032;-68
2023/05/03 05:31:25;;;;;;;5.68;2.22;;;11.80;61.30;;;;;;5032970;28;20091;-68
2023/05/03 05:33:51;;;;;;;4.03;1.98;;;12.80;58.90;;;;;;5050738;28;20021;-69
2023/05/03 05:36:16;;;;;;;3.53;1.98;;;13.70;56.80;;;;;;5050839;28;20515;-68
2023/05/03 05:38:42;;;;;;;5.55;1.98;;;14.50;55.00;;;;;;5050649;28;20045;-68
2023/05/03 05:41:08;;;;;;;4.25;1.70;;;15.30;53.50;;;;;;5050719;28;20562;-68
2023/05/03 05:43:34;;;;;;;4.10;1.95;;;15.90;52.10;;;;;;5050542;28;20442;-68
2023/05/03 05:46:00;;;;;;;3.92;1.75;;;16.30;50.40;;;;;;5050147;28;20036;-68
2023/05/03 05:48:25;;;;;;;2.55;1.50;;;16.70;49.80;;;;;;5050854;28;20075;-67
2023/05/03 05:50:51;;;;;;;3.85;1.70;;;17.20;48.90;;;;;;5050386;28;20443;-68
2023/05/03 05:53:16;;;;;;;3.95;1.65;;;17.10;47.30;;;;;;5050521;28;20391;-68
2023/05/03 05:55:42;;;;;;;2.92;1.30;;;17.10;46.60;;;;;;5048714;28;20092;-68
2023/05/03 05:58:08;;;;;;;4.10;1.60;;;17.70;46.70;;;;;;5040552;28;20426;-68
2023/05/03 06:00:35;;;;;;;3.67;1.60;;;18.10;45.80;;;;;;5050131;28;20028;-67
2023/05/03 06:03:00;;;;;;;3.67;1.48;;;17.80;44.60;;;;;;5050475;28;20021;-68
2023/05/03 06:05:26;;;;;;;3.80;1.50;;;17.80;44.50;;;;;;5050247;28;20021;-68
2023/05/03 06:07:51;;;;;;;3.17;1.58;;;17.60;44.20;;;;;;5050316;28;19917;-67
2023/05/03 06:10:17;;;;;;;2.83;1.33;;;17.40;43.60;;;;;;5049928;28;20027;-69
2023/05/03 06:12:42;;;;;;;4.18;1.65;;;17.30;44.00;;;;;;5049989;28;20054;-68
2023/05/03 06:15:08;;;;;;;6.15;2.08;;;17.50;43.30;;;;;;5048691;28;20036;-67
2023/05/03 06:17:34;;;;;;;1.80;1.30;;;17.00;43.10;;;;;;5049934;28;20372;-68
2023/05/03 06:20:00;;;;;;;4.15;1.40;;;16.90;44.70;;;;;;5050068;28;20107;-68
2023/05/03 06:22:26;;;;;;;1.85;1.30;;;17.20;43.90;;;;;;5048693;28;20025;-68
2023/05/03 06:24:51;;;;;;;2.75;1.38;;;17.40;43.40;;;;;;5049780;28;20410;-67
2023/05/03 06:27:17;;;;;;;3.35;1.40;;;18.10;42.80;;;;;;5049630;28;20020;-67
2023/05/03 06:29:43;;;;;;;2.17;1.13;;;18.20;41.90;;;;;;5050239;28;20538;-70
2023/05/03 06:32:09;;;;;;;3.13;1.30;;;17.70;41.90;;;;;;5049862;28;20071;-68
2023/05/03 06:34:36;;;;;;;5.32;1.42;;;17.80;42.00;;;;;;5049919;28;20427;-67
2023/05/03 06:37:02;;;;;;;2.90;1.13;;;17.70;41.50;;;;;;5049804;28;20021;-67
2023/05/03 06:39:27;;;;;;;3.90;1.33;;;17.50;41.70;;;;;;5048460;28;20025;-67
2023/05/03 06:41:53;;;;;;;2.85;1.27;;;17.70;41.90;;;;;;5049649;28;20025;-68
2023/05/03 06:44:19;;;;;;;4.05;1.30;;;17.40;41.90;;;;;;5049907;28;20029;-69
2023/05/03 06:46:44;;;;;;;3.50;1.35;;;17.00;42.00;;;;;;5049627;28;20403;-69
2023/05/03 06:49:10;;;;;;;4.82;1.30;;;16.90;42.10;;;;;;5048411;28;20545;-67
2023/05/03 06:51:35;;;;;;;10.15;1.73;;;16.50;42.60;;;;;;5049736;28;20032;-68
2023/05/03 06:54:05;;;;;;;3.78;1.27;;;16.30;43.10;;;;;;5049692;28;20028;-68
2023/05/03 06:56:34;;;;;;;2.17;1.27;;;16.40;43.10;;;;;;5049990;28;20543;-68
2023/05/03 06:59:00;;;;;;;4.30;1.20;;;16.50;43.20;;;;;;5053522;28;20555;-68
2023/05/03 07:01:26;;;;;;;3.85;1.50;;;16.70;43.10;;;;;;5053708;28;20036;-67
2023/05/03 07:03:52;;;;;;;3.53;1.40;;;16.70;42.20;;;;;;5053549;28;20476;-68
2023/05/03 07:06:18;;;;;;;4.43;1.38;;;16.40;42.70;;;;;;5053506;28;20072;-67
2023/05/03 07:08:44;;;;;;;2.55;1.30;;;16.80;43.00;;;;;;5053237;28;20033;-68
2023/05/03 07:11:09;;;;;;;4.93;1.40;;;17.40;42.20;;;;;;5053423;28;20028;-66
2023/05/03 07:13:35;;;;;;;5.35;1.58;;;17.40;42.20;;;;;;5053261;28;20017;-66
2023/05/03 07:16:01;;;;;;;2.58;1.42;;;17.10;42.00;;;;;;5053368;28;20380;-68
2023/05/03 07:18:26;;;;;;;4.75;1.60;;;17.20;42.40;;;;;;5053316;28;20103;-67
2023/05/03 07:20:52;;;;;;;4.32;1.60;;;17.20;42.00;;;;;;5052160;28;20025;-67
2023/05/03 07:23:18;;;;;;;2.42;1.20;;;17.30;41.70;;;;;;5051918;28;20493;-67
2023/05/03 07:25:44;;;;;;;3.70;1.40;;;17.50;42.30;;;;;;5053399;28;20498;-68
2023/05/03 07:28:10;;;;;;;4.63;1.52;;;18.10;41.60;;;;;;5052378;28;20023;-67
2023/05/03 07:30:36;;;;;;;3.40;1.70;;;17.70;41.20;;;;;;5053057;28;20025;-66
2023/05/03 07:33:02;;;;;;;3.60;1.30;;;17.20;42.00;;;;;;5053210;28;20482;-67
2023/05/03 07:35:28;;;;;;;2.67;1.20;;;17.20;42.80;;;;;;5052909;28;20017;-67
2023/05/03 07:37:53;;;;;;;4.05;1.58;;;17.30;43.00;;;;;;5052773;28;20024;-68
2023/05/03 07:40:19;;;;;;;3.80;1.50;;;17.10;43.00;;;;;;5052687;28;20039;-67
2023/05/03 07:42:45;;;;;;;2.90;1.30;;;16.40;43.50;;;;;;5052824;28;20025;-67
2023/05/03 07:45:11;;;;;;;4.43;1.65;;;16.00;44.50;;;;;;5052716;28;20044;-66
2023/05/03 07:47:38;;;;;;;3.38;1.38;;;15.30;45.20;;;;;;5052697;28;20024;-67
2023/05/03 07:50:05;;;;;;;3.33;1.70;;;14.80;46.70;;;;;;5052453;28;20013;-68
2023/05/03 07:52:35;;;;;;;4.07;1.33;;;14.70;47.40;;;;;;5052394;28;20540;-68
2023/05/03 07:55:02;;;;;;;4.43;1.58;;;14.20;47.80;;;;;;5052663;28;20017;-66
2023/05/03 07:57:27;;;;;;;8.82;1.85;;;13.90;48.20;;;;;;5052500;28;20511;-67
2023/05/03 07:59:53;;;;;;;5.15;1.80;;;13.60;49.20;;;;;;5052525;28;20029;-69
2023/05/03 08:02:19;;;;;;;5.25;1.80;;;13.50;49.30;;;;;;5052677;28;20741;-68
2023/05/03 08:04:45;;;;;;;4.82;2.25;;;13.40;49.80;;;;;;5052313;28;20475;-67
2023/05/03 08:07:10;;;;;;;3.28;1.90;;;13.30;50.10;;;;;;5050509;28;20032;-68
2023/05/03 08:09:36;;;;;;;5.68;2.30;;;12.90;50.90;;;;;;5052214;28;20025;-67
2023/05/03 08:12:02;;;;;;;4.15;1.80;;;12.80;50.90;;;;;;5052158;28;20487;-67
2023/05/03 08:14:27;;;;;;;4.00;1.48;;;12.70;51.60;;;;;;5052248;28;20040;-67
2023/05/03 08:16:53;;;;;;;10.57;2.20;;;12.90;51.80;;;;;;5052004;28;20021;-68
2023/05/03 08:19:18;;;;;;;10.60;2.20;;;12.80;51.40;;;;;;5050740;28;20395;-68
2023/05/03 08:21:45;;;;;;;8.57;1.70;;;12.90;51.80;;;;;;5051912;28;20387;-68
2023/05/03 08:24:12;;;;;;;4.75;1.67;;;13.20;51.80;;;;;;5052240;28;20017;-68
2023/05/03 08:26:39;;;;;;;3.95;1.67;;;13.50;51.40;;;;;;5051599;28;20079;-68
2023/05/03 08:29:06;;;;;;;6.88;2.22;;;13.50;50.90;;;;;;5050652;28;20112;-69
2023/05/03 08:31:31;;;;;;;5.28;1.95;;;13.50;50.30;;;;;;5051867;28;20017;-69
2023/05/03 08:33:57;;;;;;;4.90;1.92;;;13.30;50.80;;;;;;5052176;28;20021;-68
2023/05/03 08:36:22;;;;;;;6.18;1.80;;;13.30;51.10;;;;;;5052200;28;20040;-68
2023/05/03 08:38:49;;;;;;;5.03;1.95;;;13.20;51.00;;;;;;5051720;28;20455;-67
2023/05/03 08:41:26;;;;;;;5.45;1.88;;;13.20;51.20;;;;;;5051669;28;20499;-68
2023/05/03 08:43:53;;;;;;;4.63;1.67;;;13.30;51.10;;;;;;5051698;28;20095;-67
2023/05/03 08:46:19;;;;;;;3.78;1.73;;;13.30;51.30;;;;;;5051698;28;20020;-68
2023/05/03 08:48:49;;;;;;;4.13;1.80;;;13.20;50.80;;;;;;5051301;28;20119;-67
2023/05/03 08:51:18;;;;;;;6.45;1.75;;;13.10;51.00;;;;;;5051432;28;20021;-67
2023/05/03 08:53:45;;;;;;;4.40;1.70;;;13.10;51.50;;;;;;5051279;28;20029;-68
2023/05/03 08:56:19;;;;;;;5.68;2.15;;;13.30;51.60;;;;;;5051542;28;20036;-67
2023/05/03 08:58:44;;;;;;;6.93;2.10;;;13.40;51.60;;;;;;5051462;28;20114;-68
2023/05/03 09:01:10;;;;;;;13.73;2.88;;;13.50;51.40;;;;;;5051350;28;20515;-68
2023/05/03 09:03:35;;;;;;;4.90;2.10;;;13.50;51.10;;;;;;5051037;28;20102;-68
2023/05/03 09:06:02;;;;;;;4.05;1.80;;;13.40;50.80;;;;;;5051222;28;20064;-68
2023/05/03 09:08:29;;;;;;;4.45;1.90;;;13.30;50.70;;;;;;5050929;28;20028;-68
2023/05/03 09:10:55;;;;;;;3.33;1.83;;;13.30;51.10;;;;;;5051200;28;20028;-67
2023/05/03 09:13:21;;;;;;;2.45;1.52;;;13.30;50.80;;;;;;5051670;28;20096;-67
2023/05/03 09:15:53;;;;;;;4.60;2.13;;;13.40;51.10;;;;;;5049789;28;20104;-68
2023/05/03 09:18:19;;;;;;;2.65;1.60;;;13.30;50.50;;;;;;5049795;28;20021;-68
2023/05/03 09:20:53;;;;;;;4.35;1.77;;;13.30;51.20;;;;;;5050106;28;20055;-68
2023/05/03 09:23:29;;;;;;;3.35;2.10;;;13.30;51.20;;;;;;5051085;28;20383;-68
2023/05/03 09:25:56;;;;;;;4.65;1.83;;;13.40;51.20;;;;;;5050565;28;20119;-67
2023/05/03 09:28:22;;;;;;;3.72;2.05;;;13.60;51.20;;;;;;5050717;28;20025;-68
2023/05/03 09:30:49;;;;;;;9.63;2.08;;;13.50;50.60;;;;;;5050726;28;20033;-68
2023/05/03 09:33:21;;;;;;;2.75;1.70;;;13.40;50.90;;;;;;5051218;28;20044;-69
2023/05/03 09:36:02;;;;;;;5.00;2.10;;;13.60;51.20;;;;;;5050652;28;20031;-69
2023/05/03 09:38:37;;;;;;;5.27;2.00;;;13.70;50.70;;;;;;5050630;28;20021;-69
2023/05/03 09:41:05;;;;;;;21.27;3.00;;;13.90;50.70;;;;;;5050533;28;20108;-69
2023/05/03 09:43:31;;;;;;;5.15;2.25;;;14.00;50.50;;;;;;5050539;28;20063;-69
2023/05/03 09:46:11;;;;;;;13.25;3.40;;;14.00;50.10;;;;;;5050512;28;20031;-68
2023/05/03 09:48:37;;;;;;;3.85;2.00;;;13.80;49.70;;;;;;5050642;28;20025;-67
2023/05/03 09:51:04;;;;;;;2.25;1.73;;;13.80;50.10;;;;;;5050787;28;20021;-69
2023/05/03 09:53:31;;;;;;;4.68;2.08;;;14.00;50.10;;;;;;5050581;28;20025;-69
2023/05/03 09:55:58;;;;;;;4.43;2.20;;;14.00;49.90;;;;;;5050356;28;20079;-69
2023/05/03 09:58:24;;;;;;;7.28;2.00;;;13.90;50.10;;;;;;5046044;28;20025;-70
2023/05/03 10:00:51;;;;;;;3.97;2.10;;;14.10;50.30;;;;;;5045393;28;20036;-68
2023/05/03 10:03:23;;;;;;;4.25;1.90;;;14.30;50.10;;;;;;5049951;28;20113;-68
2023/05/03 10:05:50;;;;;;;;;;;14.30;49.60;;;;;;5050514;28;20051;-67
2023/05/03 10:08:48;;;;;;;5.07;2.30;;;14.20;49.70;;;;;;5050047;28;19916;-68
2023/05/03 10:11:16;;;;;;;2.72;1.90;;;14.10;49.50;;;;;;5050235;28;20040;-68
2023/05/03 10:13:42;;;;;;;4.03;2.05;;;14.30;49.90;;;;;;5049916;28;20533;-69
2023/05/03 10:16:16;;;;;;;5.75;1.80;;;14.40;50.00;;;;;;5050156;28;20100;-68
2023/05/03 10:18:55;;;;;;;2.38;1.67;;;14.70;49.50;;;;;;5049993;28;20471;-68
2023/05/03 10:21:43;;;;;;;3.90;2.00;;;14.60;48.70;;;;;;5050108;28;20033;-69
2023/05/03 10:24:14;;;;;;;2.42;1.75;;;14.60;48.80;;;;;;5050042;28;20032;-69
2023/05/03 10:26:41;;;;;;;5.05;1.80;;;14.60;49.00;;;;;;5049716;28;20029;-67
2023/05/03 10:29:36;;;;;;;4.10;1.90;;;14.70;49.30;;;;;;5049755;28;20022;-69
2023/05/03 10:32:24;;;;;;;3.35;1.98;;;14.90;48.70;;;;;;5052859;28;20024;-68
2023/05/03 10:35:20;;;;;;;3.22;1.92;;;14.80;48.80;;;;;;5053674;28;20029;-69
2023/05/03 10:37:48;;;;;;;4.97;2.30;;;15.00;48.70;;;;;;5045039;28;20319;-71
2023/05/03 10:40:16;;;;;;;4.05;1.75;;;15.10;48.40;;;;;;5054027;28;20090;-69
2023/05/03 10:42:49;;;;;;;2.55;1.80;;;15.30;48.40;;;;;;5054045;28;20479;-70
2023/05/03 10:45:25;;;;;;;3.63;1.80;;;15.30;48.10;;;;;;5053530;28;20117;-68
2023/05/03 10:48:09;;;;;;;5.43;2.10;;;15.20;47.70;;;;;;5053695;28;20028;-66
2023/05/03 10:50:35;;;;;;;4.40;1.80;;;15.40;47.80;;;;;;5054021;28;20035;-66
2023/05/03 10:53:00;;;;;;;5.22;1.90;;;15.60;47.70;;;;;;5053734;28;20599;-66
2023/05/03 10:55:26;;;;;;;3.15;1.70;;;15.60;47.30;;;;;;5052339;28;20013;-67
2023/05/03 10:57:54;;;;;;;5.03;1.95;;;15.60;47.20;;;;;;5053817;28;20017;-68
2023/05/03 11:00:23;;;;;;;4.10;1.77;;;15.40;47.20;;;;;;5053470;28;20025;-67
2023/05/03 11:03:18;;;;;;;5.85;2.60;;;15.50;47.20;;;;;;5053594;28;20086;-67
2023/05/03 11:05:47;;;;;;;3.80;1.80;;;15.60;47.10;;;;;;5053295;28;20033;-67
2023/05/03 11:08:20;;;;;;;2.65;1.75;;;15.50;46.60;;;;;;5053437;28;20092;-68
2023/05/03 11:10:55;;;;;;;3.22;1.88;;;15.50;46.70;;;;;;5053276;28;20083;-66
2023/05/03 11:13:21;;;;;;;4.60;1.80;;;15.40;45.80;;;;;;5053361;28;20071;-67
2023/05/03 11:15:46;;;;;;;3.60;1.60;;;15.40;45.60;;;;;;5051927;28;20452;-67
2023/05/03 11:18:12;;;;;;;3.63;1.50;;;15.40;46.00;;;;;;5053035;28;20379;-66
2023/05/03 11:20:38;;;;;;;4.10;1.75;;;15.50;45.70;;;;;;5053152;28;20529;-68
2023/05/03 11:23:05;;;;;;;3.92;1.92;;;15.60;45.90;;;;;;5051895;28;20562;-68
2023/05/03 11:25:32;;;;;;;4.30;1.98;;;15.80;46.00;;;;;;5053023;28;20057;-67
2023/05/03 11:28:00;;;;;;;3.72;1.90;;;15.70;46.20;;;;;;5051891;28;20491;-67
2023/05/03 11:30:27;;;;;;;3.63;1.90;;;15.70;46.90;;;;;;5053058;28;20122;-69
2023/05/03 11:32:52;;;;;;;3.03;1.90;;;15.80;46.30;;;;;;5053051;28;20021;-68
2023/05/03 11:35:20;;;;;;;4.60;2.05;;;15.90;45.70;;;;;;5052989;28;20109;-69
2023/05/03 11:37:46;;;;;;;3.42;1.90;;;15.80;45.80;;;;;;5052778;28;20021;-69
2023/05/03 11:40:15;;;;;;;3.83;2.28;;;15.80;45.50;;;;;;5053085;28;20112;-67
2023/05/03 11:42:54;;;;;;;2.90;1.80;;;15.70;45.90;;;;;;5053319;28;20550;-69
2023/05/03 11:45:22;;;;;;;3.53;1.90;;;15.90;46.20;;;;;;5054562;28;20036;-68
2023/05/03 11:47:47;;;;;;;4.03;2.28;;;16.20;46.20;;;;;;5052495;28;20025;-68
2023/05/03 11:50:13;;;;;;;4.40;2.00;;;16.30;45.40;;;;;;5052783;28;20362;-68
2023/05/03 11:52:40;;;;;;;2.58;1.80;;;16.30;45.70;;;;;;5052722;28;20383;-69
2023/05/03 11:55:07;;;;;;;4.00;1.80;;;16.20;45.50;;;;;;5052775;28;20020;-67
2023/05/03 11:57:34;;;;;;;3.33;2.10;;;16.30;44.90;;;;;;5052550;28;20025;-69
2023/05/03 12:00:15;;;;;;;3.00;2.00;;;16.40;44.50;;;;;;5052731;28;20241;-69
2023/05/03 12:02:42;;;;;;;3.13;1.88;;;16.40;44.80;;;;;;5052792;28;20032;-68
2023/05/03 12:05:08;;;;;;;3.42;2.05;;;16.60;44.80;;;;;;5052593;28;20028;-68
2023/05/03 12:07:35;;;;;;;2.47;1.77;;;16.80;44.60;;;;;;5052429;28;20031;-69
2023/05/03 12:10:12;;;;;;;2.95;1.60;;;16.80;44.00;;;;;;5052836;28;20031;-67
2023/05/03 12:12:37;;;;;;;3.83;1.50;;;16.80;42.70;;;;;;5051279;28;20420;-68
2023/05/03 12:15:04;;;;;;;4.13;1.88;;;17.10;43.10;;;;;;5052308;28;20100;-67
2023/05/03 12:17:37;;;;;;;4.22;1.90;;;17.30;42.70;;;;;;5052222;28;20103;-68
2023/05/03 12:20:17;;;;;;;3.85;1.98;;;17.40;43.10;;;;;;5052193;28;20029;-66
2023/05/03 12:22:42;;;;;;;3.53;1.90;;;17.20;42.80;;;;;;5052193;28;20028;-68
2023/05/03 12:25:08;;;;;;;3.38;2.50;;;17.30;43.30;;;;;;5052001;28;20087;-67
2023/05/03 12:27:33;;;;;;;4.60;1.90;;;17.20;42.70;;;;;;5050527;28;20021;-67
2023/05/03 12:29:59;;;;;;;3.42;1.63;;;17.10;43.40;;;;;;5051787;28;20021;-68
2023/05/03 12:32:24;;;;;;;4.05;2.17;;;17.20;43.50;;;;;;5051894;28;20439;-67
2023/05/03 12:34:54;;;;;;;3.20;2.30;;;16.90;42.50;;;;;;5051989;28;20067;-67
2023/05/03 12:37:20;;;;;;;3.67;2.08;;;16.80;43.10;;;;;;5052098;28;20025;-67
2023/05/03 12:39:45;;;;;;;3.50;2.05;;;16.90;43.40;;;;;;5051805;28;20284;-68
2023/05/03 12:42:11;;;;;;;3.47;2.10;;;17.10;43.40;;;;;;5051950;28;20029;-68
2023/05/03 12:44:40;;;;;;;4.30;2.10;;;17.10;43.50;;;;;;5051675;28;20496;-67
2023/05/03 12:47:06;;;;;;;4.82;2.20;;;17.20;43.70;;;;;;5051468;28;20503;-67
2023/05/03 12:49:32;;;;;;;3.55;1.95;;;17.30;43.50;;;;;;5051555;28;20021;-67
2023/05/03 12:51:59;;;;;;;3.97;2.42;;;17.30;42.80;;;;;;5052091;28;20017;-68